Seikkailu — OJ2717 — position and weather

sailwx.info

Track history (hours):
 
Tides and Currents Weather Stations Pressure Air Temp Water Temp Dewpoint Dewpoint Depression Visibility Wind Speed Wind Dir Waves Ship Positions

Seikkailu

Last reported at 2016-Jun-22 10:17 UTC. Time now 2016-Jun-30 16:02 UTC.
Position N 59°33' E 024°37'.
Warning: this ship's position is 8 days out of date.

Length 10 m.

Type: Pleasure craft. MMSI: 230120280.

Date/timePositionNaut miles runAvg speedWind from/ knotsBaromVisibWave heightAir tempDewpointWater temp
2016-Jun-22 10:17N 59°33' E 024°37'3 4.8
2016-Jun-22 09:33N 59°31' E 024°42'5 4.3
2016-Jun-22 08:30N 59°27' E 024°46'1 0.1
2016-Jun-22 04:23N 59°27' E 024°46'0 0.0
2016-Jun-22 03:33N 59°27' E 024°46'0 0.0
2016-Jun-22 02:33N 59°27' E 024°45'0 0.1
2016-Jun-22 01:34N 59°26' E 024°46'0 0.0
2016-Jun-22 00:29N 59°27' E 024°46'0 0.0
2016-Jun-21 23:26N 59°26' E 024°45'0 0.1
2016-Jun-21 22:30N 59°27' E 024°46'0 0.0
2016-Jun-21 21:33N 59°27' E 024°46'0 0.1
2016-Jun-21 20:24N 59°27' E 024°45'0 0.1
2016-Jun-21 19:29N 59°27' E 024°46'0 0.0
2016-Jun-21 18:31N 59°27' E 024°46'0 0.0
2016-Jun-21 17:33N 59°27' E 024°46'0 0.1
2016-Jun-21 16:28N 59°27' E 024°46'0 0.1
2016-Jun-21 15:33N 59°27' E 024°46'0 0.1
2016-Jun-21 14:33N 59°27' E 024°45'0 0.0
2016-Jun-21 13:30N 59°27' E 024°45'0 0.1
2016-Jun-21 12:33N 59°26' E 024°46'0 0.2
2016-Jun-21 11:23N 59°27' E 024°45'0 0.1
2016-Jun-21 10:32N 59°27' E 024°46'0 0.0
2016-Jun-21 08:28N 59°27' E 024°45'0 0.1
2016-Jun-21 07:22N 59°27' E 024°46'0 0.0
2016-Jun-21 06:24N 59°27' E 024°46'0 0.0
2016-Jun-21 04:14N 59°27' E 024°46'0 0.1
2016-Jun-21 03:31N 59°26' E 024°46'0 0.1
2016-Jun-21 02:34N 59°27' E 024°46'0 0.1
2016-Jun-21 01:32N 59°26' E 024°46'0 0.1
2016-Jun-21 00:33N 59°27' E 024°46'0 0.1
2016-Jun-20 23:33N 59°27' E 024°45'0 0.0
2016-Jun-20 22:32N 59°27' E 024°46'0 0.0
2016-Jun-20 21:29N 59°27' E 024°46'0 0.1
2016-Jun-20 20:33N 59°27' E 024°45'0 0.1
2016-Jun-20 19:32N 59°27' E 024°46'0 0.0
2016-Jun-20 18:33N 59°27' E 024°46'0 0.1
2016-Jun-20 17:32N 59°27' E 024°46'0 0.1
2016-Jun-20 16:33N 59°27' E 024°46'0 0.0
2016-Jun-20 15:33N 59°27' E 024°46'2 2.4
2016-Jun-20 14:33N 59°29' E 024°46'5 5.4
2016-Jun-20 13:33N 59°34' E 024°43'  
Track history (hours):
 
Tides and Currents Weather Stations Pressure Air Temp Water Temp Dewpoint Dewpoint Depression Visibility Wind Speed Wind Dir Waves Ship Positions

Seikkailu

Last reported at 2016-Jun-22 10:17 UTC. Time now 2016-Jun-30 16:02 UTC.
Position N 59°33' E 024°37'.
Warning: this ship's position is 8 days out of date.

Length 10 m.

Type: Pleasure craft. MMSI: 230120280.

Date/timePositionNaut miles runAvg speedWind from/ knotsBaromVisibWave heightAir tempDewpointWater temp
2016-Jun-22 10:17N 59°33' E 024°37'3 4.8
2016-Jun-22 09:33N 59°31' E 024°42'5 4.3
2016-Jun-22 08:30N 59°27' E 024°46'1 0.1
2016-Jun-22 04:23N 59°27' E 024°46'0 0.0
2016-Jun-22 03:33N 59°27' E 024°46'0 0.0
2016-Jun-22 02:33N 59°27' E 024°45'0 0.1
2016-Jun-22 01:34N 59°26' E 024°46'0 0.0
2016-Jun-22 00:29N 59°27' E 024°46'0 0.0
2016-Jun-21 23:26N 59°26' E 024°45'0 0.1
2016-Jun-21 22:30N 59°27' E 024°46'0 0.0
2016-Jun-21 21:33N 59°27' E 024°46'0 0.1
2016-Jun-21 20:24N 59°27' E 024°45'0 0.1
2016-Jun-21 19:29N 59°27' E 024°46'0 0.0
2016-Jun-21 18:31N 59°27' E 024°46'0 0.0
2016-Jun-21 17:33N 59°27' E 024°46'0 0.1
2016-Jun-21 16:28N 59°27' E 024°46'0 0.1
2016-Jun-21 15:33N 59°27' E 024°46'0 0.1
2016-Jun-21 14:33N 59°27' E 024°45'0 0.0
2016-Jun-21 13:30N 59°27' E 024°45'0 0.1
2016-Jun-21 12:33N 59°26' E 024°46'0 0.2
2016-Jun-21 11:23N 59°27' E 024°45'0 0.1
2016-Jun-21 10:32N 59°27' E 024°46'0 0.0
2016-Jun-21 08:28N 59°27' E 024°45'0 0.1
2016-Jun-21 07:22N 59°27' E 024°46'0 0.0
2016-Jun-21 06:24N 59°27' E 024°46'0 0.0
2016-Jun-21 04:14N 59°27' E 024°46'0 0.1
2016-Jun-21 03:31N 59°26' E 024°46'0 0.1
2016-Jun-21 02:34N 59°27' E 024°46'0 0.1
2016-Jun-21 01:32N 59°26' E 024°46'0 0.1
2016-Jun-21 00:33N 59°27' E 024°46'0 0.1
2016-Jun-20 23:33N 59°27' E 024°45'0 0.0
2016-Jun-20 22:32N 59°27' E 024°46'0 0.0
2016-Jun-20 21:29N 59°27' E 024°46'0 0.1
2016-Jun-20 20:33N 59°27' E 024°45'0 0.1
2016-Jun-20 19:32N 59°27' E 024°46'0 0.0
2016-Jun-20 18:33N 59°27' E 024°46'0 0.1
2016-Jun-20 17:32N 59°27' E 024°46'0 0.1
2016-Jun-20 16:33N 59°27' E 024°46'0 0.0
2016-Jun-20 15:33N 59°27' E 024°46'2 2.4
2016-Jun-20 14:33N 59°29' E 024°46'5 5.4
2016-Jun-20 13:33N 59°34' E 024°43'  

Dump ship's entire track history